sensor_id;sensor_type;location;lat;lon;timestamp;pressure;altitude;pressure_sealevel;temperature;humidity
47530;BME280;33272;51.922;7.730;2022-09-17T00:01:17;100218.53;;;11.60;100.00
47530;BME280;33272;51.922;7.730;2022-09-17T00:03:48;100212.44;;;11.58;100.00
47530;BME280;33272;51.922;7.730;2022-09-17T00:06:17;100214.81;;;11.55;100.00
47530;BME280;33272;51.922;7.730;2022-09-17T00:08:44;100204.56;;;11.55;100.00
47530;BME280;33272;51.922;7.730;2022-09-17T00:11:14;100207.13;;;11.55;100.00
47530;BME280;33272;51.922;7.730;2022-09-17T00:13:42;100215.69;;;11.55;100.00
47530;BME280;33272;51.922;7.730;2022-09-17T00:16:10;100215.19;;;11.61;100.00
47530;BME280;33272;51.922;7.730;2022-09-17T00:18:39;100216.97;;;11.62;100.00
47530;BME280;33272;51.922;7.730;2022-09-17T00:21:07;100215.19;;;11.61;100.00
47530;BME280;33272;51.922;7.730;2022-09-17T00:23:40;100223.84;;;11.63;100.00
47530;BME280;33272;51.922;7.730;2022-09-17T00:26:07;100221.28;;;11.63;100.00
47530;BME280;33272;51.922;7.730;2022-09-17T00:28:34;100234.91;;;11.62;100.00
47530;BME280;33272;51.922;7.730;2022-09-17T00:31:06;100231.44;;;11.62;100.00
47530;BME280;33272;51.922;7.730;2022-09-17T00:33:34;100224.03;;;11.66;100.00
47530;BME280;33272;51.922;7.730;2022-09-17T00:36:04;100220.31;;;11.61;100.00
47530;BME280;33272;51.922;7.730;2022-09-17T00:38:32;100226.22;;;11.60;100.00
47530;BME280;33272;51.922;7.730;2022-09-17T00:40:59;100226.41;;;11.63;100.00
47530;BME280;33272;51.922;7.730;2022-09-17T00:43:38;100228.91;;;11.62;100.00
47530;BME280;33272;51.922;7.730;2022-09-17T00:46:17;100229.69;;;11.60;100.00
47530;BME280;33272;51.922;7.730;2022-09-17T00:48:45;100234.91;;;11.62;100.00
47530;BME280;33272;51.922;7.730;2022-09-17T00:51:19;100235.00;;;11.64;100.00
47530;BME280;33272;51.922;7.730;2022-09-17T00:53:47;100237.47;;;11.62;100.00
47530;BME280;33272;51.922;7.730;2022-09-17T00:56:19;100234.91;;;11.62;100.00
47530;BME280;33272;51.922;7.730;2022-09-17T00:58:49;100239.38;;;11.51;100.00
47530;BME280;33272;51.922;7.730;2022-09-17T01:01:16;100236.00;;;11.52;100.00
47530;BME280;33272;51.922;7.730;2022-09-17T01:03:44;100239.38;;;11.51;100.00
47530;BME280;33272;51.922;7.730;2022-09-17T01:06:20;100247.94;;;11.52;100.00
47530;BME280;33272;51.922;7.730;2022-09-17T01:09:07;100247.56;;;11.46;100.00
47530;BME280;33272;51.922;7.730;2022-09-17T01:12:02;100241.63;;;11.47;100.00
47530;BME280;33272;51.922;7.730;2022-09-17T01:14:48;100243.63;;;11.37;100.00
47530;BME280;33272;51.922;7.730;2022-09-17T01:17:26;100239.31;;;11.36;100.00
47530;BME280;33272;51.922;7.730;2022-09-17T01:30:29;100244.16;;;11.32;100.00
47530;BME280;33272;51.922;7.730;2022-09-17T01:33:02;100248.69;;;11.23;100.00
47530;BME280;33272;51.922;7.730;2022-09-17T01:35:36;100240.91;;;11.21;100.00
47530;BME280;33272;51.922;7.730;2022-09-17T01:38:13;100244.13;;;11.19;100.00
47530;BME280;33272;51.922;7.730;2022-09-17T01:40:49;100245.34;;;11.10;100.00
47530;BME280;33272;51.922;7.730;2022-09-17T01:43:24;100254.50;;;11.07;100.00
47530;BME280;33272;51.922;7.730;2022-09-17T01:45:58;100252.31;;;11.00;100.00
47530;BME280;33272;51.922;7.730;2022-09-17T01:48:31;100259.81;;;10.97;100.00
47530;BME280;33272;51.922;7.730;2022-09-17T01:51:05;100255.97;;;10.90;100.00
47530;BME280;33272;51.922;7.730;2022-09-17T01:53:38;100248.78;;;10.84;100.00
47530;BME280;33272;51.922;7.730;2022-09-17T01:56:08;100253.72;;;10.81;100.00
47530;BME280;33272;51.922;7.730;2022-09-17T01:58:40;100258.66;;;10.78;100.00
47530;BME280;33272;51.922;7.730;2022-09-17T02:01:12;100257.25;;;10.70;100.00
47530;BME280;33272;51.922;7.730;2022-09-17T02:03:45;100261.28;;;10.66;100.00
47530;BME280;33272;51.922;7.730;2022-09-17T02:06:16;100263.63;;;10.63;100.00
47530;BME280;33272;51.922;7.730;2022-09-17T02:08:50;100260.66;;;10.57;100.00
47530;BME280;33272;51.922;7.730;2022-09-17T02:11:19;100262.16;;;10.54;100.00
47530;BME280;33272;51.922;7.730;2022-09-17T02:13:50;100260.75;;;10.46;100.00
47530;BME280;33272;51.922;7.730;2022-09-17T02:16:24;100260.66;;;10.44;100.00
47530;BME280;33272;51.922;7.730;2022-09-17T02:18:57;100264.47;;;10.37;100.00
47530;BME280;33272;51.922;7.730;2022-09-17T02:21:32;100265.25;;;10.36;100.00
47530;BME280;33272;51.922;7.730;2022-09-17T02:24:10;100271.16;;;10.35;100.00
47530;BME280;33272;51.922;7.730;2022-09-17T02:26:43;100263.16;;;10.31;100.00
47530;BME280;33272;51.922;7.730;2022-09-17T02:29:18;100262.38;;;10.32;100.00
47530;BME280;33272;51.922;7.730;2022-09-17T02:31:50;100265.72;;;10.31;100.00
47530;BME280;33272;51.922;7.730;2022-09-17T02:34:18;100266.63;;;10.31;100.00
47530;BME280;33272;51.922;7.730;2022-09-17T02:36:45;100270.66;;;10.28;100.00
47530;BME280;33272;51.922;7.730;2022-09-17T02:39:12;100264.28;;;10.23;100.00
47530;BME280;33272;51.922;7.730;2022-09-17T02:41:45;100271.97;;;10.23;100.00
47530;BME280;33272;51.922;7.730;2022-09-17T02:44:26;100265.56;;;10.16;100.00
47530;BME280;33272;51.922;7.730;2022-09-17T02:47:33;100273.09;;;10.14;100.00
47530;BME280;33272;51.922;7.730;2022-09-17T02:50:20;100268.19;;;10.17;100.00
47530;BME280;33272;51.922;7.730;2022-09-17T02:53:04;100273.00;;;10.13;100.00
47530;BME280;33272;51.922;7.730;2022-09-17T02:55:41;100267.09;;;10.14;100.00
47530;BME280;33272;51.922;7.730;2022-09-17T02:58:20;100267.56;;;10.08;100.00
47530;BME280;33272;51.922;7.730;2022-09-17T03:00:50;100267.34;;;10.05;100.00
47530;BME280;33272;51.922;7.730;2022-09-17T03:03:24;100273.06;;;10.01;100.00
47530;BME280;33272;51.922;7.730;2022-09-17T03:05:55;100266.63;;;9.94;100.00
47530;BME280;33272;51.922;7.730;2022-09-17T03:08:28;100262.31;;;9.93;100.00
47530;BME280;33272;51.922;7.730;2022-09-17T03:10:57;100267.53;;;9.95;100.00
47530;BME280;33272;51.922;7.730;2022-09-17T03:13:24;100266.44;;;9.91;100.00
47530;BME280;33272;51.922;7.730;2022-09-17T03:15:51;100268.19;;;9.92;100.00
47530;BME280;33272;51.922;7.730;2022-09-17T03:18:20;100275.44;;;9.86;100.00
47530;BME280;33272;51.922;7.730;2022-09-17T03:20:47;100272.78;;;9.85;100.00
47530;BME280;33272;51.922;7.730;2022-09-17T03:23:14;100272.56;;;9.82;100.00
47530;BME280;33272;51.922;7.730;2022-09-17T03:25:41;100281.25;;;9.84;100.00
47530;BME280;33272;51.922;7.730;2022-09-17T03:28:08;100289.69;;;9.83;100.00
47530;BME280;33272;51.922;7.730;2022-09-17T03:30:35;100290.56;;;9.83;100.00
47530;BME280;33272;51.922;7.730;2022-09-17T03:33:02;100286.91;;;9.80;100.00
47530;BME280;33272;51.922;7.730;2022-09-17T03:35:30;100286.03;;;9.79;100.00
47530;BME280;33272;51.922;7.730;2022-09-17T03:37:57;100279.16;;;9.78;100.00
47530;BME280;33272;51.922;7.730;2022-09-17T03:40:24;100282.16;;;9.72;100.00
47530;BME280;33272;51.922;7.730;2022-09-17T03:42:52;100277.25;;;9.75;100.00
47530;BME280;33272;51.922;7.730;2022-09-17T03:45:19;100278.94;;;9.75;100.00
47530;BME280;33272;51.922;7.730;2022-09-17T03:47:45;100285.81;;;9.76;100.00
47530;BME280;33272;51.922;7.730;2022-09-17T03:50:13;100274.94;;;9.67;100.00
47530;BME280;33272;51.922;7.730;2022-09-17T03:52:42;100282.25;;;9.74;100.00
47530;BME280;33272;51.922;7.730;2022-09-17T03:55:09;100291.28;;;9.69;100.00
47530;BME280;33272;51.922;7.730;2022-09-17T03:57:36;100289.72;;;9.71;100.00
47530;BME280;33272;51.922;7.730;2022-09-17T04:00:05;100292.16;;;9.69;100.00
47530;BME280;33272;51.922;7.730;2022-09-17T04:02:32;100286.16;;;9.69;100.00
47530;BME280;33272;51.922;7.730;2022-09-17T04:04:59;100291.94;;;9.66;100.00
47530;BME280;33272;51.922;7.730;2022-09-17T04:07:26;100294.63;;;9.68;100.00
47530;BME280;33272;51.922;7.730;2022-09-17T04:09:54;100292.75;;;9.65;100.00
47530;BME280;33272;51.922;7.730;2022-09-17T04:12:21;100299.31;;;9.62;100.00
47530;BME280;33272;51.922;7.730;2022-09-17T04:14:48;100299.97;;;9.59;100.00
47530;BME280;33272;51.922;7.730;2022-09-17T04:17:15;100298.28;;;9.60;100.00
47530;BME280;33272;51.922;7.730;2022-09-17T04:19:43;100308.53;;;9.60;100.00
47530;BME280;33272;51.922;7.730;2022-09-17T04:22:10;100306.75;;;9.59;100.00
47530;BME280;33272;51.922;7.730;2022-09-17T04:24:37;100318.53;;;9.57;100.00
47530;BME280;33272;51.922;7.730;2022-09-17T04:27:05;100320.28;;;9.58;100.00
47530;BME280;33272;51.922;7.730;2022-09-17T04:29:32;100320.19;;;9.56;100.00
47530;BME280;33272;51.922;7.730;2022-09-17T04:31:59;100313.63;;;9.60;100.00
47530;BME280;33272;51.922;7.730;2022-09-17T04:34:26;100315.31;;;9.59;100.00
47530;BME280;33272;51.922;7.730;2022-09-17T04:36:54;100321.06;;;9.57;100.00
47530;BME280;33272;51.922;7.730;2022-09-17T04:39:21;100314.19;;;9.56;100.00
47530;BME280;33272;51.922;7.730;2022-09-17T04:41:48;100314.06;;;9.54;100.00
47530;BME280;33272;51.922;7.730;2022-09-17T04:44:17;100319.19;;;9.54;100.00
47530;BME280;33272;51.922;7.730;2022-09-17T04:46:44;100322.41;;;9.51;100.00
47530;BME280;33272;51.922;7.730;2022-09-17T04:49:11;100318.22;;;9.52;100.00
47530;BME280;33272;51.922;7.730;2022-09-17T04:51:38;100309.31;;;9.47;100.00
47530;BME280;33272;51.922;7.730;2022-09-17T04:54:05;100314.66;;;9.50;100.00
47530;BME280;33272;51.922;7.730;2022-09-17T04:56:32;100312.53;;;9.44;100.00
47530;BME280;33272;51.922;7.730;2022-09-17T04:58:59;100318.44;;;9.43;100.00
47530;BME280;33272;51.922;7.730;2022-09-17T05:01:27;100311.97;;;9.48;100.00
47530;BME280;33272;51.922;7.730;2022-09-17T05:03:54;100318.09;;;9.50;100.00
47530;BME280;33272;51.922;7.730;2022-09-17T05:06:21;100316.41;;;9.51;100.00
47530;BME280;33272;51.922;7.730;2022-09-17T05:08:48;100313.09;;;9.52;100.00
47530;BME280;33272;51.922;7.730;2022-09-17T05:11:15;100322.31;;;9.50;100.00
47530;BME280;33272;51.922;7.730;2022-09-17T05:13:42;100322.88;;;9.46;100.00
47530;BME280;33272;51.922;7.730;2022-09-17T05:16:09;100325.66;;;9.49;100.00
47530;BME280;33272;51.922;7.730;2022-09-17T05:18:37;100323.41;;;9.54;100.00
47530;BME280;33272;51.922;7.730;2022-09-17T05:21:05;100319.09;;;9.52;100.00
47530;BME280;33272;51.922;7.730;2022-09-17T05:23:32;100329.63;;;9.57;100.00
47530;BME280;33272;51.922;7.730;2022-09-17T05:25:59;100338.28;;;9.59;100.00
47530;BME280;33272;51.922;7.730;2022-09-17T05:28:27;100339.41;;;9.63;100.00
47530;BME280;33272;51.922;7.730;2022-09-17T05:30:57;100340.41;;;9.65;100.00
47530;BME280;33272;51.922;7.730;2022-09-17T05:33:24;100339.72;;;9.67;100.00
47530;BME280;33272;51.922;7.730;2022-09-17T05:35:53;100345.03;;;9.70;100.00
47530;BME280;33272;51.922;7.730;2022-09-17T05:38:20;100341.25;;;9.77;100.00
47530;BME280;33272;51.922;7.730;2022-09-17T05:40:47;100344.22;;;9.83;100.00
47530;BME280;33272;51.922;7.730;2022-09-17T05:43:15;100348.31;;;9.93;100.00
47530;BME280;33272;51.922;7.730;2022-09-17T05:45:42;100346.53;;;10.04;100.00
47530;BME280;33272;51.922;7.730;2022-09-17T05:48:12;100348.63;;;10.09;100.00
47530;BME280;33272;51.922;7.730;2022-09-17T05:50:40;100355.06;;;10.16;100.00
47530;BME280;33272;51.922;7.730;2022-09-17T05:53:11;100348.03;;;10.25;100.00
47530;BME280;33272;51.922;7.730;2022-09-17T05:55:39;100351.34;;;10.36;100.00
47530;BME280;33272;51.922;7.730;2022-09-17T05:58:10;100355.31;;;10.44;100.00
47530;BME280;33272;51.922;7.730;2022-09-17T06:00:38;100362.41;;;10.48;100.00
47530;BME280;33272;51.922;7.730;2022-09-17T06:03:06;100358.28;;;10.50;100.00
47530;BME280;33272;51.922;7.730;2022-09-17T06:05:33;100361.19;;;10.43;100.00
47530;BME280;33272;51.922;7.730;2022-09-17T06:08:01;100365.84;;;10.49;100.00
47530;BME280;33272;51.922;7.730;2022-09-17T06:10:29;100364.75;;;10.45;100.00
47530;BME280;33272;51.922;7.730;2022-09-17T06:12:57;100370.09;;;10.48;100.00
47530;BME280;33272;51.922;7.730;2022-09-17T06:15:25;100375.09;;;10.47;100.00
47530;BME280;33272;51.922;7.730;2022-09-17T06:17:53;100374.19;;;10.46;100.00
47530;BME280;33272;51.922;7.730;2022-09-17T06:20:20;100377.97;;;10.51;100.00
47530;BME280;33272;51.922;7.730;2022-09-17T06:22:47;100373.66;;;10.50;100.00
47530;BME280;33272;51.922;7.730;2022-09-17T06:25:14;100390.47;;;10.47;100.00
47530;BME280;33272;51.922;7.730;2022-09-17T06:27:43;100387.47;;;10.40;100.00
47530;BME280;33272;51.922;7.730;2022-09-17T06:30:11;100382.56;;;10.43;100.00
47530;BME280;33272;51.922;7.730;2022-09-17T06:32:38;100387.47;;;10.40;100.00
47530;BME280;33272;51.922;7.730;2022-09-17T06:35:06;100380.00;;;10.43;100.00
47530;BME280;33272;51.922;7.730;2022-09-17T06:37:33;100386.91;;;10.44;100.00
47530;BME280;33272;51.922;7.730;2022-09-17T06:40:06;100382.19;;;10.51;100.00
47530;BME280;33272;51.922;7.730;2022-09-17T06:42:33;100391.56;;;10.50;100.00
47530;BME280;33272;51.922;7.730;2022-09-17T06:45:02;100388.72;;;10.59;100.00
47530;BME280;33272;51.922;7.730;2022-09-17T06:47:29;100392.69;;;10.67;100.00
47530;BME280;33272;51.922;7.730;2022-09-17T06:49:55;100386.44;;;10.75;100.00
47530;BME280;33272;51.922;7.730;2022-09-17T06:52:24;100387.31;;;10.76;100.00
47530;BME280;33272;51.922;7.730;2022-09-17T06:54:51;100387.13;;;10.86;100.00
47530;BME280;33272;51.922;7.730;2022-09-17T06:57:18;100389.63;;;10.98;100.00
47530;BME280;33272;51.922;7.730;2022-09-17T06:59:45;100398.50;;;11.03;100.00
47530;BME280;33272;51.922;7.730;2022-09-17T07:02:16;100400.50;;;11.20;100.00
47530;BME280;33272;51.922;7.730;2022-09-17T07:04:43;100397.34;;;11.37;100.00
47530;BME280;33272;51.922;7.730;2022-09-17T07:07:10;100395.59;;;11.50;100.00
47530;BME280;33272;51.922;7.730;2022-09-17T07:09:37;100397.38;;;11.64;100.00
47530;BME280;33272;51.922;7.730;2022-09-17T07:12:07;100396.28;;;11.74;100.00
47530;BME280;33272;51.922;7.730;2022-09-17T07:14:34;100393.53;;;11.97;100.00
47530;BME280;33272;51.922;7.730;2022-09-17T07:17:01;100391.31;;;12.17;100.00
47530;BME280;33272;51.922;7.730;2022-09-17T07:19:30;100395.88;;;12.36;100.00
47530;BME280;33272;51.922;7.730;2022-09-17T07:21:56;100384.16;;;12.39;100.00
47530;BME280;33272;51.922;7.730;2022-09-17T07:24:24;100399.75;;;12.42;100.00
47530;BME280;33272;51.922;7.730;2022-09-17T07:26:51;100391.88;;;12.54;100.00
47530;BME280;33272;51.922;7.730;2022-09-17T07:29:18;100401.94;;;12.64;100.00
47530;BME280;33272;51.922;7.730;2022-09-17T07:31:46;100403.69;;;12.65;100.00
47530;BME280;33272;51.922;7.730;2022-09-17T07:34:13;100408.13;;;12.68;100.00
47530;BME280;33272;51.922;7.730;2022-09-17T07:36:42;100401.72;;;12.89;100.00
47530;BME280;33272;51.922;7.730;2022-09-17T07:39:09;100413.38;;;12.84;100.00
47530;BME280;33272;51.922;7.730;2022-09-17T07:41:38;100412.69;;;12.87;100.00
47530;BME280;33272;51.922;7.730;2022-09-17T07:44:05;100416.66;;;12.82;100.00
47530;BME280;33272;51.922;7.730;2022-09-17T07:46:32;100409.94;;;12.84;100.00
47530;BME280;33272;51.922;7.730;2022-09-17T07:49:00;100410.63;;;12.81;100.00
47530;BME280;33272;51.922;7.730;2022-09-17T07:51:27;100406.38;;;12.82;100.00
47530;BME280;33272;51.922;7.730;2022-09-17T07:53:57;100399.56;;;12.82;100.00
47530;BME280;33272;51.922;7.730;2022-09-17T07:56:26;100406.00;;;12.75;100.00
47530;BME280;33272;51.922;7.730;2022-09-17T07:58:53;100407.25;;;12.82;100.00
47530;BME280;33272;51.922;7.730;2022-09-17T08:01:20;100408.69;;;12.77;100.00
47530;BME280;33272;51.922;7.730;2022-09-17T08:03:50;100410.28;;;12.90;100.00
47530;BME280;33272;51.922;7.730;2022-09-17T08:06:20;100406.59;;;12.99;100.00
47530;BME280;33272;51.922;7.730;2022-09-17T08:08:48;100409.88;;;13.12;100.00
47530;BME280;33272;51.922;7.730;2022-09-17T08:11:18;100406.38;;;13.11;99.25
47530;BME280;33272;51.922;7.730;2022-09-17T08:13:47;100402.41;;;13.16;100.00
47530;BME280;33272;51.922;7.730;2022-09-17T08:16:15;100409.50;;;13.20;100.00
47530;BME280;33272;51.922;7.730;2022-09-17T08:18:43;100414.75;;;13.22;99.71
47530;BME280;33272;51.922;7.730;2022-09-17T08:21:12;100400.66;;;13.30;99.46
47530;BME280;33272;51.922;7.730;2022-09-17T08:23:41;100401.09;;;13.23;98.68
47530;BME280;33272;51.922;7.730;2022-09-17T08:26:12;100400.66;;;13.30;99.27
47530;BME280;33272;51.922;7.730;2022-09-17T08:28:44;100394.66;;;13.30;96.16
47530;BME280;33272;51.922;7.730;2022-09-17T08:31:13;100400.50;;;13.42;97.41
47530;BME280;33272;51.922;7.730;2022-09-17T08:33:41;100403.75;;;13.39;93.98
47530;BME280;33272;51.922;7.730;2022-09-17T08:36:11;100405.63;;;13.42;97.93
47530;BME280;33272;51.922;7.730;2022-09-17T08:38:38;100400.94;;;13.50;96.02
47530;BME280;33272;51.922;7.730;2022-09-17T08:41:18;100399.25;;;13.50;97.05
47530;BME280;33272;51.922;7.730;2022-09-17T08:43:58;100398.25;;;13.63;96.12
47530;BME280;33272;51.922;7.730;2022-09-17T08:46:30;100408.25;;;13.73;96.50
47530;BME280;33272;51.922;7.730;2022-09-17T08:49:05;100404.69;;;13.71;94.90
47530;BME280;33272;51.922;7.730;2022-09-17T08:51:41;100408.59;;;13.79;91.97
47530;BME280;33272;51.922;7.730;2022-09-17T08:54:17;100401.56;;;13.91;93.18
47530;BME280;33272;51.922;7.730;2022-09-17T08:57:04;100415.63;;;13.98;93.08
47530;BME280;33272;51.922;7.730;2022-09-17T08:59:40;100415.75;;;14.00;90.07
47530;BME280;33272;51.922;7.730;2022-09-17T09:02:20;100415.09;;;14.04;88.69
47530;BME280;33272;51.922;7.730;2022-09-17T09:05:02;100411.31;;;13.97;85.94
47530;BME280;33272;51.922;7.730;2022-09-17T09:07:36;100409.91;;;14.19;89.65
47530;BME280;33272;51.922;7.730;2022-09-17T09:10:15;100408.13;;;14.34;90.34
47530;BME280;33272;51.922;7.730;2022-09-17T09:12:45;100404.44;;;14.45;90.72
47530;BME280;33272;51.922;7.730;2022-09-17T09:15:29;100403.66;;;14.63;89.64
47530;BME280;33272;51.922;7.730;2022-09-17T09:18:02;100402.13;;;14.82;90.09
47530;BME280;33272;51.922;7.730;2022-09-17T09:20:42;100410.09;;;14.87;85.73
47530;BME280;33272;51.922;7.730;2022-09-17T09:23:18;100408.41;;;15.04;85.58
47530;BME280;33272;51.922;7.730;2022-09-17T09:25:54;100417.72;;;15.02;85.58
47530;BME280;33272;51.922;7.730;2022-09-17T09:28:41;100403.09;;;15.01;82.47
47530;BME280;33272;51.922;7.730;2022-09-17T09:31:31;100397.63;;;15.13;85.14
47530;BME280;33272;51.922;7.730;2022-09-17T09:34:01;100406.28;;;15.13;86.30
47530;BME280;33272;51.922;7.730;2022-09-17T09:36:32;100412.72;;;15.05;84.97
47530;BME280;33272;51.922;7.730;2022-09-17T09:39:03;100398.41;;;15.10;86.39
47530;BME280;33272;51.922;7.730;2022-09-17T09:41:39;100388.03;;;15.26;82.83
47530;BME280;33272;51.922;7.730;2022-09-17T09:44:11;100412.63;;;15.38;84.92
47530;BME280;33272;51.922;7.730;2022-09-17T09:47:25;100409.13;;;15.01;78.39
47530;BME280;33272;51.922;7.730;2022-09-17T09:50:17;100411.59;;;15.00;79.24
47530;BME280;33272;51.922;7.730;2022-09-17T09:52:59;100410.19;;;15.23;81.07
47530;BME280;33272;51.922;7.730;2022-09-17T09:55:53;100402.00;;;15.32;82.86
47530;BME280;33272;51.922;7.730;2022-09-17T09:58:34;100404.75;;;15.35;82.72
47530;BME280;33272;51.922;7.730;2022-09-17T10:01:01;100416.84;;;15.53;83.84
47530;BME280;33272;51.922;7.730;2022-09-17T10:03:31;100415.00;;;15.67;81.65
47530;BME280;33272;51.922;7.730;2022-09-17T10:06:03;100405.09;;;15.77;77.64
47530;BME280;33272;51.922;7.730;2022-09-17T10:08:35;100396.25;;;15.71;76.28
47530;BME280;33272;51.922;7.730;2022-09-17T10:11:05;100400.38;;;15.68;78.70
47530;BME280;33272;51.922;7.730;2022-09-17T10:13:36;100414.47;;;15.40;78.10
47530;BME280;33272;51.922;7.730;2022-09-17T10:16:25;100405.56;;;15.34;78.75
47530;BME280;33272;51.922;7.730;2022-09-17T10:19:12;100390.44;;;15.23;76.50
47530;BME280;33272;51.922;7.730;2022-09-17T10:21:41;100401.59;;;15.58;81.28
47530;BME280;33272;51.922;7.730;2022-09-17T10:24:20;100389.78;;;15.80;77.22
47530;BME280;33272;51.922;7.730;2022-09-17T10:26:49;100395.22;;;15.86;77.05
47530;BME280;33272;51.922;7.730;2022-09-17T10:29:18;100399.75;;;15.91;79.83
47530;BME280;33272;51.922;7.730;2022-09-17T10:31:47;100404.13;;;15.74;79.90
47530;BME280;33272;51.922;7.730;2022-09-17T10:34:22;100437.72;;;14.90;83.62
47530;BME280;33272;51.922;7.730;2022-09-17T10:36:51;100412.69;;;13.61;93.89
47530;BME280;33272;51.922;7.730;2022-09-17T10:39:32;100423.47;;;12.81;100.00
47530;BME280;33272;51.922;7.730;2022-09-17T10:42:02;100404.69;;;12.26;100.00
47530;BME280;33272;51.922;7.730;2022-09-17T10:44:31;100408.41;;;12.03;100.00
47530;BME280;33272;51.922;7.730;2022-09-17T10:47:09;100406.66;;;12.02;100.00
47530;BME280;33272;51.922;7.730;2022-09-17T10:49:41;100405.94;;;12.18;100.00
47530;BME280;33272;51.922;7.730;2022-09-17T10:52:18;100395.00;;;12.35;100.00
47530;BME280;33272;51.922;7.730;2022-09-17T10:55:17;100396.59;;;12.61;100.00
47530;BME280;33272;51.922;7.730;2022-09-17T10:58:10;100395.75;;;12.90;100.00
47530;BME280;33272;51.922;7.730;2022-09-17T11:00:54;100387.09;;;13.18;100.00
47530;BME280;33272;51.922;7.730;2022-09-17T11:07:03;100385.63;;;13.67;100.00
47530;BME280;33272;51.922;7.730;2022-09-17T11:09:47;100374.41;;;13.97;100.00
47530;BME280;33272;51.922;7.730;2022-09-17T11:12:35;100377.22;;;14.18;100.00
47530;BME280;33272;51.922;7.730;2022-09-17T11:15:20;100373.63;;;14.30;96.75
47530;BME280;33272;51.922;7.730;2022-09-17T11:18:13;100368.63;;;14.50;97.33
47530;BME280;33272;51.922;7.730;2022-09-17T11:21:03;100362.28;;;14.43;90.49
47530;BME280;33272;51.922;7.730;2022-09-17T11:23:53;100369.28;;;14.62;90.83
47530;BME280;33272;51.922;7.730;2022-09-17T11:26:31;100364.28;;;14.81;92.05
47530;BME280;33272;51.922;7.730;2022-09-17T11:29:18;100368.91;;;15.05;89.01
47530;BME280;33272;51.922;7.730;2022-09-17T11:31:54;100368.44;;;15.30;88.25
47530;BME280;33272;51.922;7.730;2022-09-17T11:34:29;100364.09;;;15.65;87.50
47530;BME280;33272;51.922;7.730;2022-09-17T11:37:04;100373.59;;;16.02;87.44
47530;BME280;33272;51.922;7.730;2022-09-17T11:39:44;100363.13;;;15.98;81.25
47530;BME280;33272;51.922;7.730;2022-09-17T11:42:18;100364.31;;;15.87;82.68
47530;BME280;33272;51.922;7.730;2022-09-17T11:44:51;100363.66;;;16.11;81.56
47530;BME280;33272;51.922;7.730;2022-09-17T11:47:24;100370.38;;;16.07;76.20
47530;BME280;33272;51.922;7.730;2022-09-17T11:49:58;100371.16;;;16.24;78.53
47530;BME280;33272;51.922;7.730;2022-09-17T11:52:31;100362.59;;;16.25;77.11
47530;BME280;33272;51.922;7.730;2022-09-17T11:55:10;100360.56;;;16.37;78.14
47530;BME280;33272;51.922;7.730;2022-09-17T11:57:43;100358.44;;;16.29;78.79
47530;BME280;33272;51.922;7.730;2022-09-17T12:00:14;100369.75;;;16.31;77.43
47530;BME280;33272;51.922;7.730;2022-09-17T12:02:50;100366.66;;;16.20;75.12
47530;BME280;33272;51.922;7.730;2022-09-17T12:05:21;100356.06;;;16.14;78.17
47530;BME280;33272;51.922;7.730;2022-09-17T12:07:54;100355.72;;;16.06;76.07
47530;BME280;33272;51.922;7.730;2022-09-17T12:10:37;100352.97;;;16.21;76.46
47530;BME280;33272;51.922;7.730;2022-09-17T12:13:17;100340.38;;;16.29;76.01
47530;BME280;33272;51.922;7.730;2022-09-17T12:15:48;100349.53;;;16.41;74.78
47530;BME280;33272;51.922;7.730;2022-09-17T12:18:27;100352.50;;;16.70;75.77
47530;BME280;33272;51.922;7.730;2022-09-17T12:21:00;100345.31;;;16.82;77.20
47530;BME280;33272;51.922;7.730;2022-09-17T12:23:36;100345.25;;;17.02;74.84
47530;BME280;33272;51.922;7.730;2022-09-17T12:29:05;100347.03;;;17.24;71.24
47530;BME280;33272;51.922;7.730;2022-09-17T12:31:42;100341.06;;;17.25;73.22
47530;BME280;33272;51.922;7.730;2022-09-17T12:34:27;100343.69;;;17.05;71.39
47530;BME280;33272;51.922;7.730;2022-09-17T12:37:06;100343.00;;;16.88;71.39
47530;BME280;33272;51.922;7.730;2022-09-17T12:39:54;100344.25;;;16.77;70.22
47530;BME280;33272;51.922;7.730;2022-09-17T12:43:00;100361.59;;;16.41;68.44
47530;BME280;33272;51.922;7.730;2022-09-17T12:48:57;100404.28;;;14.26;94.63
47530;BME280;33272;51.922;7.730;2022-09-17T12:51:48;100398.19;;;13.47;96.88
47530;BME280;33272;51.922;7.730;2022-09-17T12:54:51;100387.50;;;12.81;99.17
47530;BME280;33272;51.922;7.730;2022-09-17T12:57:34;100360.69;;;12.48;100.00
47530;BME280;33272;51.922;7.730;2022-09-17T13:00:08;100362.69;;;12.24;100.00
47530;BME280;33272;51.922;7.730;2022-09-17T13:02:40;100364.06;;;12.19;99.99
47530;BME280;33272;51.922;7.730;2022-09-17T13:05:49;100372.94;;;12.24;100.00
47530;BME280;33272;51.922;7.730;2022-09-17T13:11:50;100356.31;;;12.60;100.00
47530;BME280;33272;51.922;7.730;2022-09-17T13:14:31;100375.28;;;12.92;100.00
47530;BME280;33272;51.922;7.730;2022-09-17T13:17:09;100380.28;;;13.18;100.00
47530;BME280;33272;51.922;7.730;2022-09-17T13:19:40;100363.88;;;13.46;99.68
47530;BME280;33272;51.922;7.730;2022-09-17T13:22:16;100371.50;;;13.59;99.74
47530;BME280;33272;51.922;7.730;2022-09-17T13:24:44;100369.81;;;13.91;99.04
47530;BME280;33272;51.922;7.730;2022-09-17T13:27:21;100363.09;;;14.09;97.56
47530;BME280;33272;51.922;7.730;2022-09-17T13:30:00;100357.44;;;14.49;97.76
47530;BME280;33272;51.922;7.730;2022-09-17T13:32:59;100360.66;;;14.94;97.70
47530;BME280;33272;51.922;7.730;2022-09-17T13:35:48;100417.00;;;15.04;95.95
47530;BME280;33272;51.922;7.730;2022-09-17T13:38:39;100438.00;;;13.99;97.95